createdAt,value
2017-11-09T00:01:57.142Z,46.90
2017-11-09T00:04:30.845Z,48.70
2017-11-09T00:06:58.460Z,43.93
2017-11-09T00:09:26.150Z,45.63
2017-11-09T00:11:53.750Z,46.17
2017-11-09T00:14:21.605Z,45.90
2017-11-09T00:16:49.236Z,44.60
2017-11-09T00:19:17.141Z,46.07
2017-11-09T00:21:44.763Z,44.53
2017-11-09T00:24:12.378Z,45.23
2017-11-09T00:26:39.991Z,46.10
2017-11-09T00:29:07.610Z,45.07
2017-11-09T00:31:35.552Z,45.10
2017-11-09T00:34:03.517Z,46.50
2017-11-09T00:36:31.247Z,47.40
2017-11-09T00:38:58.887Z,47.17
2017-11-09T00:41:26.506Z,45.20
2017-11-09T00:43:54.133Z,45.73
2017-11-09T00:46:21.755Z,43.00
2017-11-09T00:48:49.360Z,45.13
2017-11-09T00:51:16.997Z,45.80
2017-11-09T00:53:44.932Z,46.63
2017-11-09T00:56:12.553Z,44.50
2017-11-09T00:58:40.149Z,44.70
2017-11-09T01:01:07.770Z,43.60
2017-11-09T01:03:35.380Z,43.23
2017-11-09T01:06:03.000Z,45.80
2017-11-09T01:08:30.664Z,45.90
2017-11-09T01:10:58.266Z,44.90
2017-11-09T01:13:25.859Z,44.93
2017-11-09T01:15:53.482Z,44.20
2017-11-09T01:18:21.104Z,46.80
2017-11-09T01:20:48.746Z,48.87
2017-11-09T01:23:16.329Z,45.30
2017-11-09T01:25:43.946Z,48.60
2017-11-09T01:28:11.590Z,45.63
2017-11-09T01:30:39.228Z,46.00
2017-11-09T01:33:06.927Z,47.73
2017-11-09T01:35:34.519Z,49.10
2017-11-09T01:38:02.118Z,47.03
2017-11-09T01:40:30.603Z,47.10
2017-11-09T01:42:58.190Z,45.73
2017-11-09T01:45:25.830Z,46.50
2017-11-09T01:47:53.498Z,46.50
2017-11-09T01:50:21.094Z,46.10
2017-11-09T01:52:48.731Z,45.60
2017-11-09T01:55:16.334Z,45.37
2017-11-09T01:57:44.024Z,47.10
2017-11-09T02:00:11.617Z,44.73
2017-11-09T02:02:39.263Z,43.60
2017-11-09T02:05:06.905Z,44.80
2017-11-09T02:07:34.518Z,44.13
2017-11-09T02:10:02.165Z,47.50
2017-11-09T02:12:29.759Z,44.53
2017-11-09T02:14:57.386Z,45.57
2017-11-09T02:17:25.267Z,45.63
2017-11-09T02:19:52.916Z,44.40
2017-11-09T02:22:20.795Z,45.60
2017-11-09T02:24:48.402Z,46.80
2017-11-09T02:27:16.317Z,45.50
2017-11-09T02:29:44.219Z,47.60
2017-11-09T02:32:11.840Z,47.40
2017-11-09T02:34:39.736Z,45.87
2017-11-09T02:37:07.343Z,49.70
2017-11-09T02:39:34.966Z,49.40
2017-11-09T02:42:02.579Z,48.33
2017-11-09T02:44:30.174Z,44.57
2017-11-09T02:46:57.806Z,46.90
2017-11-09T02:49:25.403Z,46.80
2017-11-09T02:51:53.278Z,44.07
2017-11-09T02:54:28.688Z,47.00
2017-11-09T02:56:56.281Z,46.77
2017-11-09T02:59:23.929Z,48.30
2017-11-09T03:01:51.532Z,46.33
2017-11-09T03:04:19.127Z,45.07
2017-11-09T03:06:46.789Z,45.10
2017-11-09T03:09:14.405Z,44.77
2017-11-09T03:11:42.060Z,45.40
2017-11-09T03:14:09.646Z,44.83
2017-11-09T03:16:37.234Z,44.87
2017-11-09T03:19:05.153Z,45.30
2017-11-09T03:21:32.745Z,46.47
2017-11-09T03:24:00.387Z,48.27
2017-11-09T03:26:28.263Z,46.33
2017-11-09T03:28:56.110Z,44.47
2017-11-09T03:31:23.732Z,45.27
2017-11-09T03:33:51.637Z,46.83
2017-11-09T03:36:19.276Z,45.20
2017-11-09T03:38:46.871Z,45.47
2017-11-09T03:41:14.491Z,44.10
2017-11-09T03:43:42.109Z,44.67
2017-11-09T03:46:09.707Z,46.67
2017-11-09T03:48:37.352Z,45.10
2017-11-09T03:51:04.958Z,47.60
2017-11-09T03:53:32.835Z,43.27
2017-11-09T03:56:00.457Z,42.17
2017-11-09T03:58:28.382Z,43.27
2017-11-09T04:00:56.042Z,45.30
2017-11-09T04:03:23.640Z,46.13
2017-11-09T04:05:51.245Z,43.67
2017-11-09T04:08:18.885Z,41.23
2017-11-09T04:10:46.524Z,41.53
2017-11-09T04:13:14.188Z,44.93
2017-11-09T04:15:41.787Z,41.93
2017-11-09T04:18:09.464Z,42.97
2017-11-09T04:20:37.098Z,42.10
2017-11-09T04:23:04.706Z,44.10
2017-11-09T04:25:32.346Z,43.70
2017-11-09T04:27:59.990Z,44.77
2017-11-09T04:30:27.619Z,44.83
2017-11-09T04:32:55.264Z,44.57
2017-11-09T04:35:22.873Z,43.13
2017-11-09T04:37:50.525Z,47.07
2017-11-09T04:40:18.438Z,43.73
2017-11-09T04:42:46.035Z,44.27
2017-11-09T04:45:13.664Z,43.63
2017-11-09T04:47:41.254Z,46.90
2017-11-09T04:50:08.887Z,47.83
2017-11-09T04:52:36.517Z,42.67
2017-11-09T04:55:04.142Z,43.50
2017-11-09T04:57:31.754Z,43.30
2017-11-09T05:00:00.090Z,45.50
2017-11-09T05:02:27.890Z,42.60
2017-11-09T05:04:55.487Z,44.97
2017-11-09T05:07:23.114Z,43.80
2017-11-09T05:09:50.746Z,44.67
2017-11-09T05:12:18.391Z,45.50
2017-11-09T05:14:46.025Z,45.80
2017-11-09T05:17:13.998Z,46.37
2017-11-09T05:19:41.599Z,43.90
2017-11-09T05:22:09.263Z,42.63
2017-11-09T05:24:36.917Z,41.97
2017-11-09T05:27:04.859Z,41.13
2017-11-09T05:29:32.473Z,42.80
2017-11-09T05:32:00.086Z,42.63
2017-11-09T05:34:27.722Z,44.07
2017-11-09T05:36:55.349Z,42.77
2017-11-09T05:39:22.991Z,41.07
2017-11-09T05:41:50.606Z,43.77
2017-11-09T05:44:18.229Z,42.27
2017-11-09T05:46:45.901Z,44.70
2017-11-09T05:49:13.503Z,51.50
2017-11-09T05:51:41.164Z,46.00
2017-11-09T05:54:08.761Z,41.60
2017-11-09T05:56:36.358Z,41.37
2017-11-09T05:59:03.978Z,42.57
2017-11-09T06:01:31.573Z,43.17
2017-11-09T06:03:59.221Z,44.90
2017-11-09T06:06:26.880Z,45.07
2017-11-09T06:08:54.468Z,45.53
2017-11-09T06:11:22.588Z,43.97
2017-11-09T06:13:50.176Z,44.10
2017-11-09T06:16:17.849Z,42.87
2017-11-09T06:18:45.888Z,45.30
2017-11-09T06:21:13.489Z,44.67
2017-11-09T06:23:41.114Z,42.53
2017-11-09T06:26:08.718Z,43.30
2017-11-09T06:28:36.365Z,44.80
2017-11-09T06:31:03.969Z,43.50
2017-11-09T06:33:31.556Z,42.63
2017-11-09T06:35:59.434Z,44.23
2017-11-09T06:38:27.018Z,43.67
2017-11-09T06:40:54.658Z,44.07
2017-11-09T06:43:22.249Z,46.37
2017-11-09T06:45:49.837Z,43.47
2017-11-09T06:48:17.487Z,44.83
2017-11-09T06:50:45.116Z,45.83
2017-11-09T06:53:12.835Z,45.37
2017-11-09T06:55:40.726Z,46.77
2017-11-09T06:58:08.319Z,44.53
2017-11-09T07:00:35.949Z,43.90
2017-11-09T07:03:03.548Z,44.00
2017-11-09T07:05:31.207Z,44.97
2017-11-09T07:07:58.814Z,45.70
2017-11-09T07:10:26.415Z,43.30
2017-11-09T07:12:54.050Z,43.93
2017-11-09T07:15:21.647Z,42.30
2017-11-09T07:17:49.338Z,42.77
2017-11-09T07:20:16.933Z,44.20
2017-11-09T07:22:44.589Z,41.33
2017-11-09T07:25:12.483Z,45.17
2017-11-09T07:27:40.124Z,43.50
2017-11-09T07:30:07.776Z,42.10
2017-11-09T07:32:35.383Z,43.40
2017-11-09T07:35:03.015Z,43.17
2017-11-09T07:37:30.664Z,43.80
2017-11-09T07:39:58.246Z,42.23
2017-11-09T07:42:25.893Z,43.63
2017-11-09T07:44:53.492Z,42.60
2017-11-09T07:47:21.129Z,44.90
2017-11-09T07:49:48.767Z,42.50
2017-11-09T07:52:16.776Z,45.53
2017-11-09T07:54:44.746Z,43.13
2017-11-09T07:57:12.383Z,43.33
2017-11-09T07:59:39.991Z,42.50
2017-11-09T08:02:07.939Z,41.30
2017-11-09T08:04:36.526Z,45.00
2017-11-09T08:07:04.181Z,43.20
2017-11-09T08:09:31.974Z,42.07
2017-11-09T08:12:00.032Z,43.83
2017-11-09T08:14:27.869Z,46.17
2017-11-09T08:16:55.534Z,45.40
2017-11-09T08:19:23.162Z,43.60
2017-11-09T08:21:50.824Z,42.10
2017-11-09T08:24:19.872Z,42.73
2017-11-09T08:26:49.790Z,44.90
2017-11-09T08:29:21.241Z,44.70
2017-11-09T08:31:50.787Z,44.17
2017-11-09T08:34:18.427Z,43.07
2017-11-09T08:36:46.402Z,40.00
2017-11-09T08:39:14.053Z,41.50
2017-11-09T08:41:42.025Z,42.20
2017-11-09T08:44:09.674Z,40.07
2017-11-09T08:46:37.316Z,42.50
2017-11-09T08:49:04.995Z,42.70
2017-11-09T08:51:32.621Z,42.73
2017-11-09T08:54:00.233Z,43.00
2017-11-09T08:56:27.879Z,44.87
2017-11-09T08:58:55.480Z,44.87
2017-11-09T09:01:23.089Z,46.00
2017-11-09T09:03:50.734Z,44.50
2017-11-09T09:06:18.337Z,45.30
2017-11-09T09:08:45.986Z,47.33
2017-11-09T09:11:14.092Z,46.43
2017-11-09T09:13:41.754Z,48.93
2017-11-09T09:16:09.397Z,48.07
2017-11-09T09:18:37.384Z,47.17
2017-11-09T09:21:05.476Z,44.87
2017-11-09T09:23:33.158Z,47.47
2017-11-09T09:26:01.118Z,47.20
2017-11-09T09:28:44.361Z,44.63
2017-11-09T09:31:14.821Z,44.63
2017-11-09T09:33:45.575Z,46.07
2017-11-09T09:39:20.729Z,43.90
2017-11-09T09:41:48.333Z,42.10
2017-11-09T09:44:15.987Z,42.73
2017-11-09T09:46:43.673Z,43.20
2017-11-09T09:49:11.329Z,42.40
2017-11-09T09:51:38.933Z,40.90
2017-11-09T09:54:06.537Z,42.20
2017-11-09T09:56:34.192Z,41.30
2017-11-09T09:59:01.816Z,42.10
2017-11-09T10:01:29.484Z,43.50
2017-11-09T10:03:57.070Z,44.67
2017-11-09T10:06:24.682Z,43.80
2017-11-09T10:08:52.356Z,44.27
2017-11-09T10:11:19.970Z,43.80
2017-11-09T10:13:47.605Z,42.67
2017-11-09T10:16:15.251Z,43.33
2017-11-09T10:18:42.858Z,46.17
2017-11-09T10:21:10.901Z,41.37
2017-11-09T10:23:39.709Z,43.70
2017-11-09T10:26:07.737Z,42.17
2017-11-09T10:28:35.408Z,40.67
2017-11-09T10:31:03.060Z,41.37
2017-11-09T10:33:31.064Z,43.57
2017-11-09T10:35:58.686Z,42.87
2017-11-09T10:38:26.346Z,45.30
2017-11-09T10:40:53.950Z,41.30
2017-11-09T10:43:21.854Z,42.30
2017-11-09T10:45:49.515Z,42.90
2017-11-09T10:48:17.149Z,42.17
2017-11-09T10:50:44.816Z,41.57
2017-11-09T10:53:12.416Z,43.17
2017-11-09T10:55:40.005Z,42.10
2017-11-09T10:58:07.640Z,43.03
2017-11-09T11:00:40.947Z,46.00
2017-11-09T11:03:08.603Z,46.00
2017-11-09T11:05:36.203Z,44.70
2017-11-09T11:08:03.816Z,44.40
2017-11-09T11:10:31.477Z,47.07
2017-11-09T11:12:59.413Z,46.43
2017-11-09T11:15:27.050Z,46.57
2017-11-09T11:17:54.658Z,46.80
2017-11-09T11:20:22.635Z,45.97
2017-11-09T11:22:50.298Z,45.57
2017-11-09T11:25:18.553Z,46.70
2017-11-09T11:27:46.191Z,47.23
2017-11-09T11:30:13.816Z,42.87
2017-11-09T11:32:41.942Z,44.80
2017-11-09T11:35:10.198Z,46.10
2017-11-09T11:37:37.850Z,44.93
2017-11-09T11:40:05.774Z,43.20
2017-11-09T11:42:33.380Z,43.07
2017-11-09T11:45:00.990Z,42.77
2017-11-09T11:47:34.526Z,41.03
2017-11-09T11:50:02.145Z,42.90
2017-11-09T11:52:29.788Z,45.40
2017-11-09T11:54:57.397Z,45.00
2017-11-09T11:57:25.006Z,42.30
2017-11-09T11:59:52.636Z,41.20
2017-11-09T12:02:20.283Z,44.50
2017-11-09T12:04:52.930Z,42.73
2017-11-09T12:07:20.522Z,44.70
2017-11-09T12:09:48.145Z,46.10
2017-11-09T12:12:15.765Z,46.73
2017-11-09T12:14:43.364Z,47.13
2017-11-09T12:17:11.033Z,47.00
2017-11-09T12:19:38.816Z,43.97
2017-11-09T12:22:17.580Z,44.83
2017-11-09T12:24:55.068Z,43.93
2017-11-09T12:27:22.963Z,48.57
2017-11-09T12:29:50.628Z,44.43
2017-11-09T12:32:18.617Z,44.23
2017-11-09T12:34:52.323Z,43.60
2017-11-09T12:37:19.914Z,42.13
2017-11-09T12:40:07.694Z,43.47
2017-11-09T12:42:35.308Z,43.40
2017-11-09T12:45:10.469Z,44.70
2017-11-09T12:47:41.566Z,44.20
2017-11-09T12:50:09.194Z,43.20
2017-11-09T12:52:36.991Z,45.17
2017-11-09T12:55:11.118Z,44.93
2017-11-09T12:57:38.768Z,44.37
2017-11-09T13:00:11.273Z,44.40
2017-11-09T13:02:40.796Z,42.80
2017-11-09T13:05:14.115Z,45.80
2017-11-09T13:07:47.615Z,42.97
2017-11-09T13:10:15.803Z,45.67
2017-11-09T13:12:43.508Z,41.80
2017-11-09T13:15:11.130Z,44.07
2017-11-09T13:17:38.740Z,46.00
2017-11-09T13:20:06.359Z,43.97
2017-11-09T13:22:34.025Z,47.00
2017-11-09T13:25:01.659Z,44.73
2017-11-09T13:27:29.398Z,45.07
2017-11-09T13:29:57.004Z,46.47
2017-11-09T13:35:03.059Z,45.10
2017-11-09T13:37:30.688Z,45.07
2017-11-09T13:39:58.794Z,44.90
2017-11-09T13:42:26.411Z,43.93
2017-11-09T13:44:54.074Z,44.07
2017-11-09T13:47:21.683Z,46.00
2017-11-09T13:49:49.602Z,44.00
2017-11-09T13:52:17.252Z,46.80
2017-11-09T13:54:44.892Z,44.43
2017-11-09T13:57:13.110Z,43.27
2017-11-09T13:59:40.782Z,43.40
2017-11-09T14:02:11.099Z,47.00
2017-11-09T14:04:41.260Z,45.00
2017-11-09T14:07:09.642Z,43.03
2017-11-09T14:09:37.587Z,43.50
2017-11-09T14:12:07.520Z,44.67
2017-11-09T14:14:35.406Z,43.87
2017-11-09T14:17:03.081Z,42.53
2017-11-09T14:19:30.730Z,43.93
2017-11-09T14:21:58.450Z,45.30
2017-11-09T14:24:26.048Z,42.57
2017-11-09T14:26:54.089Z,46.07
2017-11-09T14:29:21.804Z,45.73
2017-11-09T14:31:51.786Z,42.20
2017-11-09T14:34:19.582Z,40.17
2017-11-09T14:36:48.317Z,44.23
2017-11-09T14:39:16.123Z,44.63
2017-11-09T14:41:43.971Z,41.50
2017-11-09T14:44:12.658Z,42.17
2017-11-09T14:46:40.314Z,43.43
2017-11-09T14:49:07.965Z,44.33
2017-11-09T14:51:35.614Z,42.87
2017-11-09T14:54:03.504Z,45.47
2017-11-09T14:56:31.268Z,43.37
2017-11-09T14:58:58.937Z,43.60
2017-11-09T15:01:27.562Z,43.37
2017-11-09T15:03:59.051Z,44.77
2017-11-09T15:06:27.170Z,44.07
2017-11-09T15:08:54.890Z,46.70
2017-11-09T15:11:23.955Z,43.30
2017-11-09T15:13:52.169Z,46.43
2017-11-09T15:16:20.045Z,45.47
2017-11-09T15:18:48.467Z,45.20
2017-11-09T15:21:16.083Z,45.13
2017-11-09T15:23:43.726Z,45.87
2017-11-09T15:26:11.340Z,46.73
2017-11-09T15:28:38.972Z,45.80
2017-11-09T15:31:06.838Z,46.43
2017-11-09T15:33:34.440Z,46.20
2017-11-09T15:36:08.825Z,46.73
2017-11-09T15:38:42.473Z,43.67
2017-11-09T15:41:15.316Z,45.80
2017-11-09T15:43:43.131Z,44.90
2017-11-09T15:46:10.743Z,45.90
2017-11-09T15:48:38.682Z,46.37
2017-11-09T15:51:06.307Z,48.30
2017-11-09T15:53:33.942Z,47.10
2017-11-09T15:56:07.731Z,46.90
2017-11-09T15:58:43.581Z,45.23
2017-11-09T16:01:11.579Z,46.70
2017-11-09T16:03:39.195Z,46.17
2017-11-09T16:06:06.803Z,46.40
2017-11-09T16:08:34.446Z,48.20
2017-11-09T16:11:02.239Z,47.00
2017-11-09T16:13:30.186Z,44.33
2017-11-09T16:15:57.811Z,47.30
2017-11-09T16:18:25.512Z,46.90
2017-11-09T16:20:53.195Z,48.00
2017-11-09T16:23:20.796Z,46.03
2017-11-09T16:25:48.521Z,48.17
2017-11-09T16:28:16.119Z,45.07
2017-11-09T16:30:43.774Z,47.37
2017-11-09T16:33:11.663Z,46.93
2017-11-09T16:35:39.323Z,47.27
2017-11-09T16:38:07.244Z,47.03
2017-11-09T16:40:34.950Z,48.40
2017-11-09T16:43:02.581Z,45.40
2017-11-09T16:45:30.179Z,47.20
2017-11-09T16:47:57.859Z,48.67
2017-11-09T16:50:25.555Z,47.10
2017-11-09T16:52:57.113Z,47.73
2017-11-09T16:55:24.713Z,48.87
2017-11-09T16:57:52.621Z,49.20
2017-11-09T17:00:20.622Z,49.20
2017-11-09T17:02:48.574Z,47.23
2017-11-09T17:05:16.542Z,47.37
2017-11-09T17:07:44.171Z,48.53
2017-11-09T17:10:11.779Z,47.53
2017-11-09T17:12:39.425Z,48.00
2017-11-09T17:15:10.874Z,46.70
2017-11-09T17:17:38.490Z,49.80
2017-11-09T17:20:06.112Z,47.77
2017-11-09T17:22:34.032Z,50.07
2017-11-09T17:25:01.671Z,47.17
2017-11-09T17:27:29.312Z,49.93
2017-11-09T17:29:56.963Z,45.33
2017-11-09T17:32:24.574Z,50.10
2017-11-09T17:34:52.206Z,49.43
2017-11-09T17:37:19.849Z,50.23
2017-11-09T17:39:48.330Z,50.07
2017-11-09T17:42:18.949Z,51.07
2017-11-09T17:44:46.546Z,49.97
2017-11-09T17:47:14.173Z,55.73
2017-11-09T17:49:41.819Z,51.40
2017-11-09T17:52:09.411Z,51.77
2017-11-09T17:54:37.052Z,50.23
2017-11-09T17:57:04.718Z,53.60
2017-11-09T18:02:29.448Z,53.87
2017-11-09T18:04:57.958Z,51.17
2017-11-09T18:07:25.565Z,55.20
2017-11-09T18:09:53.245Z,50.83
2017-11-09T18:12:20.906Z,51.83
2017-11-09T18:14:48.555Z,51.30
2017-11-09T18:17:16.227Z,49.53
2017-11-09T18:19:44.405Z,54.33
2017-11-09T18:22:12.095Z,55.70
2017-11-09T18:24:39.751Z,51.00
2017-11-09T18:27:07.370Z,54.20
2017-11-09T18:29:35.046Z,52.93
2017-11-09T18:32:02.715Z,53.47
2017-11-09T18:34:30.355Z,53.80
2017-11-09T18:36:58.020Z,54.40
2017-11-09T18:39:25.645Z,53.10
2017-11-09T18:41:53.252Z,51.17
2017-11-09T18:44:21.254Z,55.80
2017-11-09T18:46:48.877Z,53.40
2017-11-09T18:49:16.575Z,53.33
2017-11-09T18:51:44.328Z,53.87
2017-11-09T18:54:11.990Z,54.23
2017-11-09T18:56:39.634Z,56.47
2017-11-09T18:59:12.797Z,53.77
2017-11-09T19:01:40.440Z,53.90
2017-11-09T19:04:08.064Z,54.33
2017-11-09T19:06:35.972Z,54.50
2017-11-09T19:09:03.642Z,53.17
2017-11-09T19:11:31.264Z,51.97
2017-11-09T19:13:58.913Z,54.83
2017-11-09T19:16:26.966Z,53.77
2017-11-09T19:18:54.690Z,53.07
2017-11-09T19:21:22.304Z,53.40
2017-11-09T19:23:49.929Z,51.87
2017-11-09T19:26:17.572Z,55.00
2017-11-09T19:28:45.349Z,55.87
2017-11-09T19:31:13.024Z,56.10
2017-11-09T19:33:40.682Z,54.00
2017-11-09T19:36:08.328Z,53.10
2017-11-09T19:38:36.297Z,52.27
2017-11-09T19:41:03.931Z,56.87
2017-11-09T19:43:31.721Z,57.33
2017-11-09T19:45:59.387Z,51.90
2017-11-09T19:48:27.065Z,53.93
2017-11-09T19:50:54.706Z,54.50
2017-11-09T19:53:22.384Z,52.97
2017-11-09T19:55:50.068Z,53.77
2017-11-09T19:58:17.826Z,53.67
2017-11-09T20:00:45.474Z,52.03
2017-11-09T20:03:13.156Z,53.90
2017-11-09T20:05:41.108Z,52.43
2017-11-09T20:08:08.844Z,52.20
2017-11-09T20:10:36.468Z,54.00
2017-11-09T20:13:04.112Z,51.30
2017-11-09T20:15:31.778Z,52.17
2017-11-09T20:17:59.449Z,50.60
2017-11-09T20:20:28.972Z,50.63
2017-11-09T20:22:56.628Z,51.70
2017-11-09T20:25:24.261Z,53.50
2017-11-09T20:27:51.931Z,51.33
2017-11-09T20:30:19.558Z,53.17
2017-11-09T20:32:47.251Z,49.93
2017-11-09T20:35:14.911Z,50.83
2017-11-09T20:37:42.558Z,53.57
2017-11-09T20:40:10.204Z,53.50
2017-11-09T20:42:37.941Z,49.00
2017-11-09T20:45:05.623Z,52.33
2017-11-09T20:47:33.538Z,49.73
2017-11-09T20:50:02.078Z,48.87
2017-11-09T20:52:29.778Z,49.57
2017-11-09T20:54:57.413Z,48.77
2017-11-09T20:57:25.132Z,50.00
2017-11-09T20:59:52.786Z,48.20
2017-11-09T21:02:20.451Z,49.53
2017-11-09T21:04:48.546Z,50.53
2017-11-09T21:07:16.186Z,48.13
2017-11-09T21:09:45.465Z,48.80
2017-11-09T21:12:13.439Z,49.80
2017-11-09T21:14:41.033Z,48.90
2017-11-09T21:17:08.935Z,49.80
2017-11-09T21:19:36.681Z,46.60
2017-11-09T21:22:04.357Z,48.00
2017-11-09T21:24:32.003Z,47.57
2017-11-09T21:26:59.604Z,47.67
2017-11-09T21:29:27.262Z,47.90
2017-11-09T21:31:54.894Z,47.73
2017-11-09T21:34:22.554Z,46.57
2017-11-09T21:36:50.149Z,49.17
2017-11-09T21:39:18.233Z,48.30
2017-11-09T21:41:45.947Z,46.57
2017-11-09T21:44:13.876Z,46.37
2017-11-09T21:46:41.592Z,47.50
2017-11-09T21:49:09.270Z,50.37
2017-11-09T21:51:36.897Z,46.33
2017-11-09T21:54:04.628Z,47.37
2017-11-09T21:56:32.290Z,48.20
2017-11-09T21:58:59.926Z,47.90
2017-11-09T22:01:27.548Z,45.77
2017-11-09T22:03:55.510Z,48.43
2017-11-09T22:06:23.225Z,45.27
2017-11-09T22:08:50.838Z,47.73
2017-11-09T22:11:18.496Z,45.50
2017-11-09T22:13:46.141Z,49.80
2017-11-09T22:16:13.736Z,47.73
2017-11-09T22:18:41.374Z,46.40
2017-11-09T22:21:08.973Z,49.13
2017-11-09T22:23:36.627Z,48.47
2017-11-09T22:26:04.293Z,44.17
2017-11-09T22:28:31.903Z,45.57
2017-11-09T22:30:59.566Z,44.93
2017-11-09T22:33:27.174Z,44.47
2017-11-09T22:35:54.808Z,46.53
2017-11-09T22:38:22.448Z,45.90
2017-11-09T22:40:50.054Z,43.83
2017-11-09T22:43:17.690Z,43.80
2017-11-09T22:45:45.369Z,44.23
2017-11-09T22:48:13.026Z,45.40
2017-11-09T22:50:40.733Z,43.17
2017-11-09T22:53:09.994Z,42.97
2017-11-09T22:55:37.637Z,43.60
2017-11-09T22:58:05.238Z,43.80
2017-11-09T23:00:32.885Z,42.97
2017-11-09T23:03:00.482Z,42.10
2017-11-09T23:05:28.092Z,43.80
2017-11-09T23:07:55.731Z,42.87
2017-11-09T23:10:23.365Z,45.63
2017-11-09T23:12:51.002Z,40.80
2017-11-09T23:15:18.629Z,40.60
2017-11-09T23:17:46.298Z,43.77
2017-11-09T23:20:14.268Z,42.27
2017-11-09T23:22:42.155Z,41.43
2017-11-09T23:25:09.874Z,39.73
2017-11-09T23:27:37.497Z,39.90
2017-11-09T23:30:05.103Z,40.87
2017-11-09T23:32:32.992Z,40.43
2017-11-09T23:35:00.659Z,39.00
2017-11-09T23:37:28.645Z,38.70
2017-11-09T23:39:56.277Z,41.93
2017-11-09T23:42:23.884Z,41.60
2017-11-09T23:44:51.516Z,37.50
2017-11-09T23:47:19.154Z,38.80
2017-11-09T23:49:46.812Z,39.53
2017-11-09T23:52:14.437Z,38.60
2017-11-09T23:54:42.070Z,37.70
2017-11-09T23:57:09.726Z,40.20
2017-11-09T23:59:37.341Z,38.97
